Terminal Aerodrome Forecast
Issued by NWS

Home | Current Version | Previous Version | Text Only | Print | Product List | Glossary On
Versions: 1 2 3 4 5 6 7 8 9 10 11 12 13
000
FTUS43 KDTX 130500
TAFMBS
TAF
KMBS 130522Z 1306/1406 24006KT 2SM +TSRA BR BKN012 OVC028CB
     FM130900 27014KT P6SM BKN018 OVC080
     FM131400 27013KT P6SM SCT050
     FM132000 27008KT P6SM BKN060
     FM140100 28004KT P6SM SCT080=

USA.gov is the U.S. government's official web portal to all federal, state and local government web resources and services.